createdAt,value
2023-01-04T00:00:05.549Z,85
2023-01-04T00:30:06.478Z,86
2023-01-04T01:00:10.469Z,85
2023-01-04T01:30:00.980Z,86
2023-01-04T02:00:09.194Z,86
2023-01-04T02:30:22.210Z,86
2023-01-04T03:00:03.024Z,86
2023-01-04T03:30:28.688Z,85
2023-01-04T04:00:13.249Z,84
2023-01-04T04:30:12.606Z,84
2023-01-04T05:00:04.759Z,85
2023-01-04T05:30:17.843Z,87
2023-01-04T06:00:09.925Z,86
2023-01-04T06:30:16.657Z,89
2023-01-04T07:00:30.188Z,86
2023-01-04T07:30:21.497Z,84
2023-01-04T08:00:25.555Z,86
2023-01-04T08:30:05.952Z,85
2023-01-04T09:00:09.205Z,83
2023-01-04T09:30:29.479Z,81
2023-01-04T10:00:13.708Z,79
2023-01-04T10:30:04.931Z,81
2023-01-04T11:30:15.216Z,77
2023-01-04T12:00:07.628Z,77
2023-01-04T12:30:20.935Z,75
2023-01-04T13:00:01.020Z,76
2023-01-04T13:30:05.534Z,76
2023-01-04T14:00:06.096Z,77
2023-01-04T14:30:07.739Z,79
2023-01-04T15:00:15.285Z,79
2023-01-04T16:00:19.311Z,79
2023-01-04T16:30:04.454Z,79
2023-01-04T17:00:06.815Z,79
2023-01-04T17:30:09.748Z,84
2023-01-04T18:00:30.967Z,85
2023-01-04T18:30:04.353Z,90
2023-01-04T19:00:24.901Z,96
2023-01-04T19:30:19.782Z,96
2023-01-04T20:00:10.041Z,97
2023-01-04T20:30:18.487Z,97
2023-01-04T21:00:01.631Z,97
2023-01-04T21:30:01.702Z,97
2023-01-04T22:00:24.080Z,97
2023-01-04T22:30:26.671Z,97
2023-01-04T23:00:17.306Z,97
2023-01-04T23:30:01.215Z,98
